createdAt,value
2022-12-19T00:01:34.879Z,12.17
2022-12-19T00:04:07.807Z,12.43
2022-12-19T00:06:37.551Z,11.87
2022-12-19T00:09:05.138Z,12.13
2022-12-19T00:11:33.020Z,10.30
2022-12-19T00:16:51.231Z,10.93
2022-12-19T00:19:18.181Z,10.43
2022-12-19T00:21:44.869Z,11.13
2022-12-19T00:24:21.482Z,12.57
2022-12-19T00:26:49.107Z,10.90
2022-12-19T00:29:16.224Z,11.37
2022-12-19T00:31:44.172Z,12.03
2022-12-19T00:34:11.047Z,12.07
2022-12-19T00:36:39.827Z,11.37
2022-12-19T00:39:08.338Z,10.73
2022-12-19T00:41:37.559Z,11.10
2022-12-19T00:44:12.873Z,10.37
2022-12-19T00:46:43.893Z,10.43
2022-12-19T00:49:18.299Z,12.33
2022-12-19T00:51:46.658Z,12.83
2022-12-19T00:54:13.304Z,12.87
2022-12-19T00:56:41.360Z,11.77
2022-12-19T00:59:08.375Z,12.00
2022-12-19T01:01:37.798Z,12.17
2022-12-19T01:06:53.501Z,11.57
2022-12-19T01:09:20.880Z,11.03
2022-12-19T01:11:49.206Z,11.47
2022-12-19T01:14:22.258Z,15.33
2022-12-19T01:16:50.524Z,12.30
2022-12-19T01:19:19.056Z,12.30
2022-12-19T01:21:45.734Z,12.63
2022-12-19T01:24:13.765Z,11.90
2022-12-19T01:26:49.297Z,12.53
2022-12-19T01:29:16.352Z,12.23
2022-12-19T01:31:43.352Z,12.10
2022-12-19T01:34:10.189Z,13.37
2022-12-19T01:36:40.216Z,11.90
2022-12-19T01:39:07.612Z,13.33
2022-12-19T01:41:34.821Z,11.77
2022-12-19T01:44:04.679Z,12.97
2022-12-19T01:46:45.920Z,13.83
2022-12-19T01:49:29.223Z,12.80
2022-12-19T01:51:59.982Z,13.23
2022-12-19T01:54:32.852Z,12.60
2022-12-19T01:57:01.366Z,11.63
2022-12-19T01:59:42.384Z,13.10
2022-12-19T02:02:23.520Z,11.63
2022-12-19T02:04:50.265Z,14.00
2022-12-19T02:07:20.078Z,14.17
2022-12-19T02:09:57.024Z,14.70
2022-12-19T02:12:36.566Z,13.47
2022-12-19T02:15:05.445Z,15.90
2022-12-19T02:17:57.728Z,15.73
2022-12-19T02:20:42.969Z,11.97
2022-12-19T02:23:18.579Z,13.80
2022-12-19T02:26:07.208Z,13.50
2022-12-19T02:28:43.139Z,13.63
2022-12-19T02:31:36.512Z,13.03
2022-12-19T02:34:28.263Z,14.97
2022-12-19T02:37:08.929Z,15.90
2022-12-19T02:39:56.364Z,12.30
2022-12-19T02:42:31.900Z,13.93
2022-12-19T02:45:05.191Z,13.53
2022-12-19T02:47:34.155Z,13.43
2022-12-19T02:50:02.616Z,13.60
2022-12-19T02:52:29.786Z,14.47
2022-12-19T02:55:01.125Z,15.17
2022-12-19T02:58:03.722Z,12.87
2022-12-19T03:00:35.560Z,15.63
2022-12-19T03:03:14.344Z,17.03
2022-12-19T03:05:53.419Z,14.20
2022-12-19T03:08:52.102Z,15.50
2022-12-19T03:11:22.125Z,16.37
2022-12-19T03:14:12.621Z,17.30
2022-12-19T03:16:40.070Z,16.40
2022-12-19T03:19:13.326Z,16.13
2022-12-19T03:21:42.645Z,14.53
2022-12-19T03:24:11.693Z,17.90
2022-12-19T03:26:46.823Z,16.93
2022-12-19T03:29:21.709Z,17.23
2022-12-19T03:31:48.858Z,14.97
2022-12-19T03:34:28.371Z,16.13
2022-12-19T03:37:03.254Z,15.83
2022-12-19T03:39:32.351Z,15.87
2022-12-19T03:42:01.033Z,16.77
2022-12-19T03:44:32.804Z,17.40
2022-12-19T03:47:15.704Z,14.40
2022-12-19T03:49:42.746Z,16.03
2022-12-19T03:52:33.695Z,18.90
2022-12-19T03:55:15.962Z,15.83
2022-12-19T03:57:52.392Z,17.70
2022-12-19T04:00:21.174Z,16.77
2022-12-19T04:02:51.262Z,18.10
2022-12-19T04:05:21.627Z,15.27
2022-12-19T04:07:50.798Z,20.70
2022-12-19T04:10:21.821Z,18.13
2022-12-19T04:12:53.036Z,18.30
2022-12-19T04:15:29.364Z,17.90
2022-12-19T04:17:59.055Z,16.77
2022-12-19T04:20:27.321Z,16.17
2022-12-19T04:23:16.496Z,18.53
2022-12-19T04:25:55.639Z,16.40
2022-12-19T04:28:27.195Z,16.43
2022-12-19T04:30:54.614Z,19.07
2022-12-19T04:33:21.339Z,17.40
2022-12-19T04:35:48.327Z,18.93
2022-12-19T04:38:14.933Z,18.73
2022-12-19T04:40:41.987Z,19.13
2022-12-19T04:43:09.308Z,18.23
2022-12-19T04:45:36.113Z,18.37
2022-12-19T04:48:04.005Z,16.13
2022-12-19T04:50:33.081Z,16.97
2022-12-19T04:53:00.078Z,17.17
2022-12-19T04:55:27.190Z,17.43
2022-12-19T04:57:54.577Z,19.47
2022-12-19T05:00:21.604Z,18.77
2022-12-19T05:02:48.346Z,19.10
2022-12-19T05:05:15.503Z,20.10
2022-12-19T05:07:42.119Z,19.33
2022-12-19T05:10:08.923Z,19.20
2022-12-19T05:12:35.706Z,17.37
2022-12-19T05:15:02.523Z,18.77
2022-12-19T05:17:29.102Z,19.13
2022-12-19T05:19:55.815Z,17.77
2022-12-19T05:22:22.413Z,17.83
2022-12-19T05:24:49.070Z,18.77
2022-12-19T05:27:15.772Z,18.47
2022-12-19T05:29:42.500Z,18.17
2022-12-19T05:32:12.248Z,17.90
2022-12-19T05:34:39.303Z,18.97
2022-12-19T05:37:06.345Z,19.87
2022-12-19T05:39:33.505Z,19.53
2022-12-19T05:42:00.203Z,18.67
2022-12-19T05:44:27.564Z,18.97
2022-12-19T05:46:54.232Z,19.03
2022-12-19T05:49:21.016Z,18.80
2022-12-19T05:51:51.413Z,18.13
2022-12-19T05:54:18.144Z,19.77
2022-12-19T05:56:47.790Z,20.73
2022-12-19T05:59:14.709Z,20.97
2022-12-19T06:01:45.338Z,19.13
2022-12-19T06:04:12.192Z,17.90
2022-12-19T06:06:44.896Z,22.03
2022-12-19T06:09:14.593Z,21.93
2022-12-19T06:11:41.224Z,21.37
2022-12-19T06:14:07.879Z,19.57
2022-12-19T06:16:35.048Z,20.97
2022-12-19T06:19:01.748Z,19.00
2022-12-19T06:21:28.346Z,20.33
2022-12-19T06:23:55.149Z,18.73
2022-12-19T06:26:22.385Z,18.27
2022-12-19T06:28:50.663Z,20.47
2022-12-19T06:31:18.019Z,18.57
2022-12-19T06:33:46.368Z,22.43
2022-12-19T06:36:20.472Z,20.50
2022-12-19T06:38:48.323Z,19.60
2022-12-19T06:41:15.801Z,18.33
2022-12-19T06:43:43.004Z,20.70
2022-12-19T06:46:10.593Z,19.53
2022-12-19T06:48:37.391Z,18.13
2022-12-19T06:51:04.136Z,20.87
2022-12-19T06:53:30.894Z,20.87
2022-12-19T06:55:59.556Z,20.87
2022-12-19T06:58:27.015Z,20.33
2022-12-19T07:00:54.514Z,19.00
2022-12-19T07:03:30.102Z,20.20
2022-12-19T07:05:56.720Z,22.30
2022-12-19T07:08:23.291Z,20.67
2022-12-19T07:10:50.171Z,19.77
2022-12-19T07:13:16.893Z,19.37
2022-12-19T07:15:43.616Z,20.33
2022-12-19T07:18:11.201Z,19.97
2022-12-19T07:20:44.779Z,20.33
2022-12-19T07:23:16.380Z,20.07
2022-12-19T07:25:43.070Z,21.07
2022-12-19T07:28:09.901Z,20.00
2022-12-19T07:30:36.940Z,19.70
2022-12-19T07:33:03.853Z,17.13
2022-12-19T07:35:30.602Z,19.20
2022-12-19T07:38:04.645Z,19.23
2022-12-19T07:40:31.353Z,17.70
2022-12-19T07:43:02.604Z,19.23
2022-12-19T07:45:30.262Z,20.43
2022-12-19T07:48:00.749Z,21.03
2022-12-19T07:50:30.036Z,20.50
2022-12-19T07:52:58.150Z,19.83
2022-12-19T07:55:25.885Z,21.63
2022-12-19T07:57:52.914Z,18.83
2022-12-19T08:00:20.137Z,20.50
2022-12-19T08:02:46.801Z,18.30
2022-12-19T08:05:13.682Z,20.03
2022-12-19T08:07:40.563Z,18.10
2022-12-19T08:10:08.185Z,21.30
2022-12-19T08:12:34.776Z,21.13
2022-12-19T08:15:01.524Z,20.93
2022-12-19T08:17:28.304Z,20.13
2022-12-19T08:19:55.040Z,20.43
2022-12-19T08:22:21.845Z,23.93
2022-12-19T08:24:48.562Z,19.87
2022-12-19T08:27:18.164Z,22.67
2022-12-19T08:29:44.867Z,22.30
2022-12-19T08:32:15.664Z,22.90
2022-12-19T08:34:45.602Z,19.50
2022-12-19T08:37:12.325Z,20.33
2022-12-19T08:39:39.031Z,20.77
2022-12-19T08:42:05.647Z,21.63
2022-12-19T08:44:32.372Z,24.40
2022-12-19T08:46:58.979Z,22.57
2022-12-19T08:49:25.781Z,22.33
2022-12-19T08:51:52.343Z,21.90
2022-12-19T08:54:19.095Z,25.67
2022-12-19T08:56:46.680Z,24.00
2022-12-19T08:59:17.681Z,26.20
2022-12-19T09:01:57.646Z,22.60
2022-12-19T09:05:52.853Z,24.33
2022-12-19T09:07:11.275Z,23.27
2022-12-19T09:09:42.252Z,24.57
2022-12-19T09:12:08.882Z,22.80
2022-12-19T09:14:35.890Z,22.93
2022-12-19T09:17:03.921Z,22.03
2022-12-19T09:19:32.194Z,20.87
2022-12-19T09:21:59.513Z,23.30
2022-12-19T09:24:26.224Z,22.27
2022-12-19T09:26:53.017Z,23.93
2022-12-19T09:29:21.862Z,24.57
2022-12-19T09:31:56.245Z,21.03
2022-12-19T09:34:36.929Z,25.63
2022-12-19T09:37:08.335Z,22.93
2022-12-19T09:39:36.733Z,22.30
2022-12-19T09:42:39.368Z,26.03
2022-12-19T09:45:45.809Z,24.00
2022-12-19T09:48:24.218Z,23.17
2022-12-19T09:51:11.868Z,23.23
2022-12-19T09:53:54.436Z,23.27
2022-12-19T09:56:23.799Z,24.30
2022-12-19T09:58:58.445Z,23.10
2022-12-19T10:01:49.632Z,24.00
2022-12-19T10:04:16.932Z,25.40
2022-12-19T10:07:12.557Z,23.33
2022-12-19T10:11:12.994Z,25.70
2022-12-19T10:12:47.687Z,25.50
2022-12-19T10:15:42.757Z,26.10
2022-12-19T10:18:34.849Z,24.60
2022-12-19T10:21:50.816Z,24.97
2022-12-19T10:24:43.157Z,23.30
2022-12-19T10:27:59.334Z,24.30
2022-12-19T10:30:31.891Z,27.33
2022-12-19T10:33:26.839Z,24.90
2022-12-19T10:36:02.262Z,23.47
2022-12-19T10:38:52.098Z,26.90
2022-12-19T10:41:28.999Z,24.73
2022-12-19T10:44:01.750Z,24.17
2022-12-19T10:46:40.417Z,23.77
2022-12-19T10:49:16.365Z,22.70
2022-12-19T10:51:57.868Z,22.70
2022-12-19T10:54:55.849Z,23.20
2022-12-19T10:57:22.722Z,21.30
2022-12-19T11:00:14.185Z,20.83
2022-12-19T11:02:47.307Z,21.70
2022-12-19T11:05:27.059Z,24.23
2022-12-19T11:08:07.808Z,23.40
2022-12-19T11:11:57.984Z,23.63
2022-12-19T11:18:17.661Z,24.60
2022-12-19T11:23:25.285Z,24.40
2022-12-19T11:29:34.683Z,24.30
2022-12-19T11:29:45.591Z,22.07
2022-12-19T11:30:37.135Z,23.63
2022-12-19T11:30:44.035Z,24.87
2022-12-19T11:34:13.489Z,23.97
2022-12-19T11:37:14.214Z,23.37
2022-12-19T11:39:47.990Z,25.03
2022-12-19T11:42:44.078Z,25.77
2022-12-19T11:45:30.362Z,24.43
2022-12-19T11:48:00.905Z,23.43
2022-12-19T11:50:51.925Z,23.83
2022-12-19T11:53:27.455Z,24.97
2022-12-19T11:56:16.312Z,24.27
2022-12-19T11:58:50.260Z,23.97
2022-12-19T12:01:32.775Z,24.03
2022-12-19T12:04:05.566Z,24.67
2022-12-19T12:06:39.954Z,21.50
2022-12-19T12:13:29.332Z,22.23
2022-12-19T12:22:50.068Z,23.87
2022-12-19T12:23:22.015Z,24.27
2022-12-19T12:31:09.987Z,24.50
2022-12-19T12:31:16.967Z,24.57
2022-12-19T12:31:49.212Z,26.37
2022-12-19T12:31:50.445Z,26.40
2022-12-19T12:35:56.312Z,25.83
2022-12-19T12:40:40.615Z,24.07
2022-12-19T12:43:22.715Z,24.07
2022-12-19T12:45:50.713Z,27.73
2022-12-19T12:48:42.774Z,26.37
2022-12-19T12:51:11.192Z,22.97
2022-12-19T12:53:55.834Z,24.27
2022-12-19T12:56:23.087Z,25.87
2022-12-19T12:59:00.302Z,24.27
2022-12-19T13:01:28.859Z,23.77
2022-12-19T13:04:07.424Z,24.03
2022-12-19T13:06:41.251Z,24.00
2022-12-19T13:09:20.651Z,24.97
2022-12-19T13:12:14.215Z,24.30
2022-12-19T13:14:46.114Z,26.30
2022-12-19T13:17:19.677Z,24.47
2022-12-19T13:19:59.382Z,23.83
2022-12-19T13:23:02.566Z,22.80
2022-12-19T13:25:32.603Z,27.53
2022-12-19T13:28:05.092Z,23.63
2022-12-19T13:31:19.684Z,24.03
2022-12-19T13:33:56.114Z,23.77
2022-12-19T13:39:54.620Z,24.53
2022-12-19T13:40:11.993Z,24.97
2022-12-19T13:43:09.646Z,23.10
2022-12-19T13:45:40.105Z,23.13
2022-12-19T13:48:15.702Z,25.57
2022-12-19T13:50:43.895Z,23.60
2022-12-19T13:53:19.725Z,24.17
2022-12-19T13:55:47.132Z,23.57
2022-12-19T13:58:43.002Z,23.43
2022-12-19T14:05:05.094Z,21.00
2022-12-19T14:08:06.497Z,21.83
2022-12-19T14:14:33.167Z,27.63
2022-12-19T14:17:32.950Z,25.87
2022-12-19T14:22:01.573Z,23.47
2022-12-19T14:23:04.810Z,22.33
2022-12-19T14:28:15.803Z,23.60
2022-12-19T14:28:42.255Z,20.13
2022-12-19T14:31:14.553Z,23.67
2022-12-19T14:34:11.211Z,20.17
2022-12-19T14:36:38.414Z,23.90
2022-12-19T14:39:23.376Z,22.77
2022-12-19T14:42:02.436Z,21.43
2022-12-19T14:52:34.908Z,24.83
2022-12-19T14:52:51.159Z,25.37
2022-12-19T14:54:14.804Z,24.30
2022-12-19T14:54:40.347Z,22.83
2022-12-19T14:56:57.697Z,23.27
2022-12-19T14:59:05.549Z,24.13
2022-12-19T15:01:34.787Z,23.00
2022-12-19T15:04:49.395Z,24.90
2022-12-19T15:07:08.848Z,22.53
2022-12-19T15:11:09.163Z,21.73
2022-12-19T15:14:52.119Z,21.77
2022-12-19T15:16:05.913Z,23.93
2022-12-19T15:18:32.812Z,26.30
2022-12-19T15:21:20.226Z,29.03
2022-12-19T15:23:47.054Z,26.73
2022-12-19T15:26:20.433Z,23.63
2022-12-19T15:28:50.580Z,25.70
2022-12-19T15:31:20.213Z,24.43
2022-12-19T15:34:50.581Z,26.10
2022-12-19T15:36:33.632Z,24.67
2022-12-19T15:39:00.294Z,25.10
2022-12-19T15:41:27.497Z,24.97
2022-12-19T15:44:03.640Z,25.10
2022-12-19T15:46:31.630Z,24.77
2022-12-19T15:48:58.575Z,28.20
2022-12-19T15:51:25.337Z,26.57
2022-12-19T15:53:52.081Z,27.57
2022-12-19T15:56:28.921Z,25.77
2022-12-19T15:58:58.784Z,25.33
2022-12-19T16:01:26.137Z,25.13
2022-12-19T16:03:53.646Z,24.97
2022-12-19T16:06:20.704Z,24.63
2022-12-19T16:08:47.552Z,27.40
2022-12-19T16:11:19.502Z,26.80
2022-12-19T16:13:53.401Z,22.20
2022-12-19T16:16:20.543Z,24.27
2022-12-19T16:18:47.319Z,24.90
2022-12-19T16:21:33.188Z,24.07
2022-12-19T16:24:00.660Z,25.20
2022-12-19T16:26:34.919Z,22.63
2022-12-19T16:29:02.367Z,22.63
2022-12-19T16:31:29.770Z,26.73
2022-12-19T16:33:56.779Z,25.17
2022-12-19T16:36:23.549Z,22.80
2022-12-19T16:38:50.359Z,25.13
2022-12-19T16:41:21.785Z,23.17
2022-12-19T16:44:19.071Z,25.27
2022-12-19T16:46:50.855Z,24.00
2022-12-19T16:49:20.848Z,23.80
2022-12-19T16:51:47.778Z,22.63
2022-12-19T16:54:16.332Z,24.10
2022-12-19T16:56:45.977Z,23.70
2022-12-19T16:59:20.574Z,23.87
2022-12-19T17:01:48.871Z,25.10
2022-12-19T17:04:18.392Z,25.10
2022-12-19T17:06:45.848Z,24.63
2022-12-19T17:09:17.753Z,22.67
2022-12-19T17:11:48.136Z,24.67
2022-12-19T17:14:21.337Z,23.53
2022-12-19T17:16:48.635Z,23.50
2022-12-19T17:19:32.131Z,21.60
2022-12-19T17:22:01.001Z,23.27
2022-12-19T17:24:27.837Z,24.67
2022-12-19T17:26:54.562Z,24.40
2022-12-19T17:29:21.266Z,22.47
2022-12-19T17:31:48.242Z,22.07
2022-12-19T17:34:20.660Z,26.13
2022-12-19T17:36:47.661Z,25.33
2022-12-19T17:39:23.682Z,23.70
2022-12-19T17:41:51.825Z,23.93
2022-12-19T17:44:18.772Z,25.30
2022-12-19T17:46:47.008Z,22.63
2022-12-19T17:49:24.373Z,24.33
2022-12-19T17:51:51.664Z,25.23
2022-12-19T17:54:23.037Z,24.43
2022-12-19T17:56:50.587Z,25.27
2022-12-19T17:59:17.733Z,26.77
2022-12-19T18:01:45.105Z,22.77
2022-12-19T18:04:18.613Z,23.90
2022-12-19T18:06:46.291Z,24.53
2022-12-19T18:09:25.346Z,22.97
2022-12-19T18:11:52.782Z,21.17
2022-12-19T18:14:19.791Z,23.17
2022-12-19T18:16:49.345Z,22.33
2022-12-19T18:19:20.959Z,23.80
2022-12-19T18:21:47.857Z,23.87
2022-12-19T18:24:15.011Z,23.27
2022-12-19T18:26:42.469Z,23.83
2022-12-19T18:29:09.457Z,23.47
2022-12-19T18:31:36.727Z,22.20
2022-12-19T18:34:07.930Z,24.87
2022-12-19T18:36:42.151Z,24.03
2022-12-19T18:39:23.842Z,24.53
2022-12-19T18:41:51.841Z,23.77
2022-12-19T18:44:19.295Z,26.73
2022-12-19T18:46:48.580Z,28.70
2022-12-19T18:49:16.785Z,28.10
2022-12-19T18:51:43.886Z,25.77
2022-12-19T18:54:16.658Z,26.87
2022-12-19T18:56:44.412Z,24.50
2022-12-19T18:59:11.207Z,26.40
2022-12-19T19:01:44.691Z,25.80
2022-12-19T19:04:13.357Z,27.13
2022-12-19T19:06:48.327Z,28.33
2022-12-19T19:09:18.074Z,24.93
2022-12-19T19:12:04.065Z,25.17
2022-12-19T19:14:31.268Z,23.93
2022-12-19T19:16:58.427Z,24.60
2022-12-19T19:19:25.287Z,26.10
2022-12-19T19:21:52.194Z,23.93
2022-12-19T19:24:22.633Z,25.60
2022-12-19T19:26:49.398Z,27.00
2022-12-19T19:29:16.503Z,24.97
2022-12-19T19:31:46.657Z,25.23
2022-12-19T19:34:24.087Z,25.83
2022-12-19T19:36:53.009Z,23.50
2022-12-19T19:39:19.805Z,24.27
2022-12-19T19:41:46.658Z,24.57
2022-12-19T19:44:13.348Z,23.80
2022-12-19T19:46:40.208Z,25.07
2022-12-19T19:49:08.853Z,22.97
2022-12-19T19:51:35.705Z,24.10
2022-12-19T19:54:02.300Z,23.67
2022-12-19T19:56:28.978Z,24.10
2022-12-19T19:58:57.035Z,23.27
2022-12-19T20:01:29.598Z,25.23
2022-12-19T20:03:59.079Z,23.70
2022-12-19T20:06:26.107Z,24.27
2022-12-19T20:08:53.374Z,25.37
2022-12-19T20:11:23.223Z,22.70
2022-12-19T20:13:51.979Z,25.00
2022-12-19T20:16:19.820Z,25.33
2022-12-19T20:18:51.302Z,24.90
2022-12-19T20:21:21.970Z,25.77
2022-12-19T20:23:49.006Z,24.00
2022-12-19T20:26:17.516Z,24.93
2022-12-19T20:29:08.434Z,23.77
2022-12-19T20:31:41.599Z,26.30
2022-12-19T20:34:09.021Z,25.47
2022-12-19T20:36:38.234Z,24.00
2022-12-19T20:39:07.500Z,24.27
2022-12-19T20:41:34.259Z,24.77
2022-12-19T20:44:01.127Z,23.23
2022-12-19T20:46:33.480Z,22.30
2022-12-19T20:49:03.307Z,23.37
2022-12-19T20:51:30.055Z,22.73
2022-12-19T20:53:59.226Z,22.23
2022-12-19T20:56:26.027Z,24.00
2022-12-19T21:05:56.498Z,23.87
2022-12-19T21:12:20.337Z,24.60
2022-12-19T21:18:39.585Z,26.43
2022-12-19T21:21:26.034Z,25.10
2022-12-19T21:24:05.287Z,24.07
2022-12-19T21:26:54.452Z,23.07
2022-12-19T21:29:35.594Z,24.07
2022-12-19T21:32:14.986Z,24.93
2022-12-19T21:35:07.455Z,22.23
2022-12-19T21:37:45.858Z,23.80
2022-12-19T21:40:14.915Z,22.90
2022-12-19T21:42:45.082Z,22.77
2022-12-19T21:45:18.988Z,22.70
2022-12-19T21:47:53.599Z,22.73
2022-12-19T21:50:22.538Z,23.43
2022-12-19T21:52:55.851Z,20.60
2022-12-19T21:55:34.503Z,23.57
2022-12-19T21:58:04.747Z,23.77
2022-12-19T22:00:32.417Z,23.43
2022-12-19T22:03:13.998Z,21.10
2022-12-19T22:05:44.075Z,23.40
2022-12-19T22:08:12.426Z,24.03
2022-12-19T22:10:45.011Z,23.13
2022-12-19T22:13:13.396Z,24.57
2022-12-19T22:15:42.244Z,24.13
2022-12-19T22:18:09.944Z,23.10
2022-12-19T22:20:45.943Z,21.10
2022-12-19T22:23:14.585Z,22.93
2022-12-19T22:25:42.028Z,24.93
2022-12-19T22:28:15.302Z,23.67
2022-12-19T22:30:48.053Z,21.93
2022-12-19T22:33:16.229Z,21.87
2022-12-19T22:35:49.777Z,22.63
2022-12-19T22:38:22.553Z,22.17
2022-12-19T22:40:55.547Z,21.20
2022-12-19T22:43:23.866Z,22.00
2022-12-19T22:45:51.290Z,22.63
2022-12-19T22:48:21.269Z,21.40
2022-12-19T22:50:50.883Z,21.97
2022-12-19T22:53:17.677Z,23.17
2022-12-19T22:55:45.102Z,24.37
2022-12-19T22:58:12.771Z,23.73
2022-12-19T23:00:39.992Z,23.47
2022-12-19T23:03:07.603Z,22.33
2022-12-19T23:05:38.821Z,23.10
2022-12-19T23:08:12.323Z,21.97
2022-12-19T23:10:40.719Z,23.17
2022-12-19T23:13:07.565Z,24.63
2022-12-19T23:15:35.340Z,22.20
2022-12-19T23:18:02.013Z,21.83
2022-12-19T23:20:28.677Z,22.87
2022-12-19T23:22:55.251Z,22.27
2022-12-19T23:25:22.267Z,22.87
2022-12-19T23:27:48.927Z,22.47
2022-12-19T23:30:15.841Z,22.87
2022-12-19T23:32:48.756Z,25.03
2022-12-19T23:35:17.377Z,23.23
2022-12-19T23:37:44.303Z,20.93
2022-12-19T23:40:11.211Z,22.23
2022-12-19T23:42:37.846Z,23.17
2022-12-19T23:45:05.057Z,22.73
2022-12-19T23:47:31.767Z,21.93
2022-12-19T23:50:01.431Z,22.03
2022-12-19T23:56:18.067Z,21.03
2022-12-19T23:59:23.017Z,23.93
